createdAt,value
2018-07-13T00:00:26.362Z,0.00
2018-07-13T00:01:57.929Z,0.00
2018-07-13T00:03:29.497Z,0.00
2018-07-13T00:05:01.064Z,0.00
2018-07-13T00:06:32.636Z,0.00
2018-07-13T00:08:04.203Z,0.00
2018-07-13T00:09:35.771Z,0.00
2018-07-13T00:11:07.438Z,0.00
2018-07-13T00:12:38.906Z,0.00
2018-07-13T00:14:10.477Z,0.00
2018-07-13T00:15:42.044Z,0.00
2018-07-13T00:17:13.712Z,0.00
2018-07-13T00:18:45.182Z,0.00
2018-07-13T00:20:16.748Z,0.00
2018-07-13T00:21:48.316Z,0.00
2018-07-13T00:23:19.928Z,0.00
2018-07-13T00:24:51.456Z,0.00
2018-07-13T00:26:23.021Z,0.00
2018-07-13T00:27:54.592Z,0.00
2018-07-13T00:29:26.258Z,0.00
2018-07-13T00:30:57.725Z,0.00
2018-07-13T00:32:29.298Z,0.00
2018-07-13T00:34:00.866Z,0.00
2018-07-13T00:35:32.462Z,0.00
2018-07-13T00:37:03.999Z,0.00
2018-07-13T00:38:35.566Z,0.00
2018-07-13T00:40:07.133Z,0.00
2018-07-13T00:41:38.702Z,0.00
2018-07-13T00:43:10.270Z,0.00
2018-07-13T00:44:41.838Z,0.00
2018-07-13T00:46:13.406Z,0.00
2018-07-13T00:47:45.324Z,0.00
2018-07-13T00:49:16.549Z,0.00
2018-07-13T00:50:48.110Z,0.00
2018-07-13T00:52:19.679Z,0.00
2018-07-13T00:53:51.346Z,0.00
2018-07-13T00:55:22.815Z,0.00
2018-07-13T00:56:54.383Z,0.00
2018-07-13T00:58:25.951Z,0.00
2018-07-13T00:59:57.524Z,0.00
2018-07-13T01:01:29.088Z,0.00
2018-07-13T01:03:00.656Z,0.00
2018-07-13T01:04:32.223Z,0.00
2018-07-13T01:06:03.891Z,0.00
2018-07-13T01:07:35.359Z,0.00
2018-07-13T01:09:06.927Z,0.00
2018-07-13T01:10:38.495Z,0.00
2018-07-13T01:12:10.065Z,0.00
2018-07-13T01:13:41.631Z,0.00
2018-07-13T01:15:13.211Z,0.00
2018-07-13T01:16:44.767Z,0.00
2018-07-13T01:18:16.435Z,0.00
2018-07-13T01:19:47.904Z,0.00
2018-07-13T01:21:19.520Z,0.00
2018-07-13T01:22:51.040Z,0.00
2018-07-13T01:24:22.710Z,0.00
2018-07-13T01:25:54.175Z,0.00
2018-07-13T01:27:25.744Z,0.00
2018-07-13T01:28:57.312Z,0.00
2018-07-13T01:30:28.879Z,0.00
2018-07-13T01:32:00.447Z,0.00
2018-07-13T01:33:32.015Z,0.00
2018-07-13T01:35:03.582Z,0.00
2018-07-13T01:36:35.150Z,0.00
2018-07-13T01:38:06.734Z,0.00
2018-07-13T01:39:38.286Z,0.00
2018-07-13T01:41:09.854Z,0.00
2018-07-13T01:42:41.523Z,0.00
2018-07-13T01:44:12.989Z,0.00
2018-07-13T01:45:44.556Z,0.00
2018-07-13T01:47:16.124Z,0.00
2018-07-13T01:48:47.793Z,0.00
2018-07-13T01:50:19.259Z,0.00
2018-07-13T01:51:50.827Z,0.00
2018-07-13T01:53:22.394Z,0.00
2018-07-13T01:54:57.263Z,0.00
2018-07-13T01:56:30.539Z,0.00
2018-07-13T01:58:02.043Z,0.00
2018-07-13T01:59:31.686Z,0.00
2018-07-13T02:01:05.336Z,0.00
2018-07-13T02:02:36.003Z,0.00
2018-07-13T02:04:06.595Z,0.00
2018-07-13T02:05:34.938Z,0.00
2018-07-13T02:07:06.502Z,0.00
2018-07-13T02:08:38.069Z,0.00
2018-07-13T02:10:09.637Z,0.00
2018-07-13T02:11:41.206Z,0.00
2018-07-13T02:13:12.774Z,0.00
2018-07-13T02:14:44.339Z,0.00
2018-07-13T02:16:15.907Z,0.00
2018-07-13T02:17:47.519Z,0.00
2018-07-13T02:19:19.392Z,0.00
2018-07-13T02:20:50.609Z,0.00
2018-07-13T02:22:22.177Z,0.00
2018-07-13T02:23:53.744Z,0.00
2018-07-13T02:25:25.411Z,0.00
2018-07-13T02:26:56.878Z,0.00
2018-07-13T02:28:28.445Z,0.00
2018-07-13T02:30:00.017Z,0.00
2018-07-13T02:31:31.584Z,0.00
2018-07-13T02:33:03.147Z,0.00
2018-07-13T02:34:34.713Z,0.00
2018-07-13T02:36:06.281Z,0.00
2018-07-13T02:37:37.947Z,0.00
2018-07-13T02:39:09.515Z,0.00
2018-07-13T02:40:40.989Z,0.00
2018-07-13T02:42:12.556Z,0.00
2018-07-13T02:43:44.116Z,0.00
2018-07-13T02:45:15.682Z,0.00
2018-07-13T02:46:47.249Z,0.00
2018-07-13T02:48:18.816Z,0.00
2018-07-13T02:49:50.487Z,0.00
2018-07-13T02:51:21.949Z,0.00
2018-07-13T02:52:53.517Z,0.00
2018-07-13T02:54:25.088Z,0.00
2018-07-13T02:55:56.749Z,0.00
2018-07-13T02:57:28.216Z,0.00
2018-07-13T02:58:59.786Z,0.00
2018-07-13T03:00:31.349Z,0.00
2018-07-13T03:02:02.916Z,0.00
2018-07-13T03:03:34.483Z,0.00
2018-07-13T03:05:06.050Z,0.00
2018-07-13T03:06:37.616Z,0.00
2018-07-13T03:08:09.183Z,0.00
2018-07-13T03:09:40.749Z,0.00
2018-07-13T03:11:12.316Z,0.00
2018-07-13T03:12:43.882Z,0.00
2018-07-13T03:14:15.800Z,0.00
2018-07-13T03:15:47.017Z,0.00
2018-07-13T03:17:18.583Z,0.00
2018-07-13T03:18:50.151Z,0.00
2018-07-13T03:20:21.716Z,0.00
2018-07-13T03:21:53.282Z,0.00
2018-07-13T03:23:24.850Z,0.00
2018-07-13T03:24:56.416Z,0.00
2018-07-13T03:26:27.982Z,0.00
2018-07-13T03:27:59.547Z,0.00
2018-07-13T03:29:31.114Z,0.00
2018-07-13T03:31:02.681Z,0.00
2018-07-13T03:32:34.347Z,0.00
2018-07-13T03:34:05.814Z,0.00
2018-07-13T03:35:37.380Z,0.00
2018-07-13T03:37:08.946Z,0.00
2018-07-13T03:38:40.513Z,0.00
2018-07-13T03:40:12.079Z,0.00
2018-07-13T03:41:43.645Z,0.00
2018-07-13T03:43:15.211Z,0.00
2018-07-13T03:44:46.778Z,0.00
2018-07-13T03:46:18.345Z,0.00
2018-07-13T03:47:49.911Z,0.00
2018-07-13T03:49:21.476Z,0.00
2018-07-13T03:50:53.294Z,0.00
2018-07-13T03:52:24.609Z,0.00
2018-07-13T03:53:56.176Z,0.00
2018-07-13T03:55:27.742Z,0.00
2018-07-13T03:56:59.311Z,0.00
2018-07-13T03:58:30.875Z,0.00
2018-07-13T04:00:02.442Z,0.00
2018-07-13T04:01:34.008Z,0.00
2018-07-13T04:03:05.574Z,0.00
2018-07-13T04:04:37.140Z,0.00
2018-07-13T04:06:08.707Z,0.00
2018-07-13T04:07:40.274Z,0.00
2018-07-13T04:09:11.938Z,0.00
2018-07-13T04:10:43.405Z,0.00
2018-07-13T04:12:14.971Z,0.00
2018-07-13T04:13:46.537Z,0.00
2018-07-13T04:15:18.103Z,0.00
2018-07-13T04:16:49.671Z,0.00
2018-07-13T04:18:21.236Z,0.00
2018-07-13T04:19:52.802Z,0.00
2018-07-13T04:21:24.468Z,0.00
2018-07-13T04:22:55.934Z,0.00
2018-07-13T04:24:27.511Z,0.00
2018-07-13T04:25:59.066Z,0.00
2018-07-13T04:27:30.733Z,0.00
2018-07-13T04:29:02.198Z,0.00
2018-07-13T04:30:33.765Z,0.00
2018-07-13T04:32:05.330Z,0.00
2018-07-13T04:33:36.898Z,0.00
2018-07-13T04:35:08.463Z,0.00
2018-07-13T04:36:40.037Z,0.00
2018-07-13T04:38:11.595Z,0.00
2018-07-13T04:39:43.161Z,0.00
2018-07-13T04:41:14.727Z,0.00
2018-07-13T04:42:46.292Z,0.00
2018-07-13T04:44:17.857Z,0.00
2018-07-13T04:45:49.724Z,0.00
2018-07-13T04:47:20.989Z,0.00
2018-07-13T04:48:52.556Z,0.00
2018-07-13T04:50:24.124Z,0.00
2018-07-13T04:51:55.687Z,0.00
2018-07-13T04:53:27.252Z,0.00
2018-07-13T04:54:58.817Z,0.00
2018-07-13T04:56:30.385Z,0.00
2018-07-13T04:58:01.950Z,0.00
2018-07-13T04:59:33.515Z,0.00
2018-07-13T05:01:05.083Z,0.00
2018-07-13T05:02:36.647Z,0.00
2018-07-13T05:04:08.413Z,0.00
2018-07-13T05:05:39.779Z,0.00
2018-07-13T05:07:11.344Z,0.00
2018-07-13T05:08:42.909Z,0.00
2018-07-13T05:10:14.475Z,0.00
2018-07-13T05:11:46.041Z,0.00
2018-07-13T05:13:17.607Z,0.00
2018-07-13T05:14:49.172Z,0.00
2018-07-13T05:16:20.738Z,0.00
2018-07-13T05:17:52.303Z,0.00
2018-07-13T05:19:23.869Z,0.00
2018-07-13T05:20:55.436Z,0.00
2018-07-13T05:22:27.217Z,0.00
2018-07-13T05:23:58.567Z,0.00
2018-07-13T05:25:30.135Z,0.00
2018-07-13T05:27:01.697Z,0.00
2018-07-13T05:28:33.263Z,0.00
2018-07-13T05:30:04.831Z,0.00
2018-07-13T05:31:36.396Z,0.00
2018-07-13T05:33:07.961Z,0.00
2018-07-13T05:34:39.528Z,0.00
2018-07-13T05:36:11.094Z,0.00
2018-07-13T05:37:42.660Z,0.00
2018-07-13T05:39:14.228Z,0.00
2018-07-13T05:40:45.895Z,0.00
2018-07-13T05:42:17.359Z,0.00
2018-07-13T05:43:48.925Z,0.00
2018-07-13T05:45:20.498Z,0.00
2018-07-13T05:46:52.058Z,0.00
2018-07-13T05:48:23.624Z,0.00
2018-07-13T05:49:55.191Z,0.00
2018-07-13T05:51:26.757Z,0.00
2018-07-13T05:52:58.322Z,0.00
2018-07-13T05:54:29.889Z,0.00
2018-07-13T05:56:01.456Z,0.00
2018-07-13T05:57:33.023Z,0.00
2018-07-13T05:59:04.789Z,0.00
2018-07-13T06:00:36.156Z,0.00
2018-07-13T06:02:07.722Z,0.00
2018-07-13T06:03:39.318Z,0.00
2018-07-13T06:05:10.855Z,0.00
2018-07-13T06:06:42.421Z,0.00
2018-07-13T06:08:13.987Z,0.00
2018-07-13T06:09:45.586Z,0.00
2018-07-13T06:11:17.122Z,0.00
2018-07-13T06:12:48.687Z,0.00
2018-07-13T06:14:20.253Z,0.00
2018-07-13T06:15:51.821Z,0.00
2018-07-13T06:17:23.487Z,0.00
2018-07-13T06:18:54.953Z,0.00
2018-07-13T06:20:26.523Z,0.00
2018-07-13T06:21:58.086Z,0.00
2018-07-13T06:23:29.652Z,0.00
2018-07-13T06:25:01.620Z,0.00
2018-07-13T06:26:32.786Z,0.00
2018-07-13T06:28:04.352Z,0.00
2018-07-13T06:29:36.023Z,0.00
2018-07-13T06:31:07.487Z,0.00
2018-07-13T06:32:39.052Z,0.00
2018-07-13T06:34:10.618Z,0.00
2018-07-13T06:35:42.285Z,0.00
2018-07-13T06:37:13.752Z,0.00
2018-07-13T06:38:45.318Z,0.00
2018-07-13T06:40:16.884Z,0.00
2018-07-13T06:41:48.451Z,0.00
2018-07-13T06:43:20.017Z,0.00
2018-07-13T06:44:51.654Z,0.00
2018-07-13T06:46:23.151Z,0.00
2018-07-13T06:47:54.717Z,0.00
2018-07-13T06:49:26.286Z,0.00
2018-07-13T06:50:57.850Z,0.00
2018-07-13T06:52:29.417Z,0.00
2018-07-13T06:54:01.183Z,0.00
2018-07-13T06:55:32.549Z,0.00
2018-07-13T06:57:04.116Z,0.00
2018-07-13T06:58:35.684Z,0.00
2018-07-13T07:00:07.249Z,0.00
2018-07-13T07:01:38.815Z,0.00
2018-07-13T07:03:10.382Z,0.00
2018-07-13T07:04:41.949Z,0.00
2018-07-13T07:06:13.552Z,0.00
2018-07-13T07:07:45.122Z,0.00
2018-07-13T07:09:16.649Z,0.00
2018-07-13T07:10:48.213Z,0.00
2018-07-13T07:12:19.880Z,0.00
2018-07-13T07:13:51.346Z,0.00
2018-07-13T07:15:22.912Z,0.00
2018-07-13T07:16:54.478Z,0.00
2018-07-13T07:18:26.047Z,0.00
2018-07-13T07:19:57.611Z,0.00
2018-07-13T07:21:29.177Z,0.00
2018-07-13T07:23:00.744Z,0.00
2018-07-13T07:24:32.388Z,0.00
2018-07-13T07:26:03.877Z,0.00
2018-07-13T07:27:35.443Z,0.00
2018-07-13T07:29:07.010Z,0.00
2018-07-13T07:30:38.734Z,0.00
2018-07-13T07:32:10.143Z,0.00
2018-07-13T07:33:41.709Z,0.00
2018-07-13T07:35:13.275Z,0.00
2018-07-13T07:36:44.842Z,0.00
2018-07-13T07:38:16.408Z,0.00
2018-07-13T07:39:47.975Z,0.00
2018-07-13T07:41:19.540Z,0.00
2018-07-13T07:42:51.107Z,0.00
2018-07-13T07:44:22.673Z,0.00
2018-07-13T07:45:54.239Z,0.00
2018-07-13T07:47:25.807Z,0.00
2018-07-13T07:48:57.473Z,0.00
2018-07-13T07:50:28.940Z,0.00
2018-07-13T07:52:00.506Z,0.00
2018-07-13T07:53:32.073Z,0.00
2018-07-13T07:55:03.739Z,0.00
2018-07-13T07:56:35.210Z,0.00
2018-07-13T07:58:06.772Z,0.00
2018-07-13T07:59:38.338Z,0.00
2018-07-13T08:01:09.905Z,0.00
2018-07-13T08:02:41.471Z,0.00
2018-07-13T08:04:13.037Z,0.00
2018-07-13T08:05:44.625Z,0.00
2018-07-13T08:07:16.769Z,0.00
2018-07-13T08:08:47.737Z,0.00
2018-07-13T08:10:19.303Z,0.00
2018-07-13T08:11:50.869Z,0.00
2018-07-13T08:13:22.437Z,0.00
2018-07-13T08:14:54.002Z,0.00
2018-07-13T08:16:25.567Z,0.00
2018-07-13T08:17:57.135Z,0.00
2018-07-13T08:19:28.714Z,0.00
2018-07-13T08:21:00.267Z,0.00
2018-07-13T08:22:31.832Z,0.00
2018-07-13T08:24:03.397Z,0.00
2018-07-13T08:25:35.214Z,0.00
2018-07-13T08:27:06.530Z,0.00
2018-07-13T08:28:38.096Z,0.00
2018-07-13T08:30:09.661Z,0.00
2018-07-13T08:31:41.231Z,0.00
2018-07-13T08:33:12.794Z,0.00
2018-07-13T08:34:44.360Z,0.00
2018-07-13T08:36:15.930Z,0.00
2018-07-13T08:37:47.497Z,0.00
2018-07-13T08:39:19.059Z,0.00
2018-07-13T08:40:50.624Z,0.00
2018-07-13T08:42:22.191Z,0.00
2018-07-13T08:43:53.867Z,0.00
2018-07-13T08:45:25.324Z,0.00
2018-07-13T08:46:56.889Z,0.00
2018-07-13T08:48:28.455Z,0.00
2018-07-13T08:50:00.022Z,0.00
2018-07-13T08:51:31.592Z,0.00
2018-07-13T08:53:03.154Z,0.00
2018-07-13T08:54:34.720Z,0.00
2018-07-13T08:56:06.415Z,0.00
2018-07-13T08:57:37.853Z,0.00
2018-07-13T08:59:09.419Z,0.00
2018-07-13T09:00:40.985Z,0.00
2018-07-13T09:02:12.652Z,0.00
2018-07-13T09:03:44.118Z,0.00
2018-07-13T09:05:15.685Z,0.00
2018-07-13T09:06:47.250Z,0.00
2018-07-13T09:08:18.817Z,0.00
2018-07-13T09:09:50.383Z,0.00
2018-07-13T09:11:21.949Z,0.00
2018-07-13T09:12:53.569Z,0.00
2018-07-13T09:14:25.084Z,0.00
2018-07-13T09:15:56.650Z,0.00
2018-07-13T09:17:28.217Z,0.00
2018-07-13T09:18:59.782Z,0.00
2018-07-13T09:20:31.449Z,0.00
2018-07-13T09:22:02.915Z,0.00
2018-07-13T09:23:34.482Z,0.00
2018-07-13T09:25:06.050Z,0.00
2018-07-13T09:26:37.866Z,0.00
2018-07-13T09:28:09.183Z,0.00
2018-07-13T09:29:40.750Z,0.00
2018-07-13T09:31:12.324Z,0.00
2018-07-13T09:32:43.883Z,0.00
2018-07-13T09:34:15.450Z,0.00
2018-07-13T09:35:47.019Z,0.00
2018-07-13T09:37:18.583Z,0.00
2018-07-13T09:38:50.349Z,0.00
2018-07-13T09:40:21.716Z,0.00
2018-07-13T09:41:53.283Z,0.00
2018-07-13T09:43:24.849Z,5.63
2018-07-13T09:44:56.537Z,5.63
2018-07-13T09:46:28.123Z,11.25
2018-07-13T09:47:59.757Z,11.25
2018-07-13T09:49:31.114Z,16.88
2018-07-13T09:51:02.690Z,16.88
2018-07-13T09:52:34.247Z,22.50
2018-07-13T09:54:06.131Z,28.13
2018-07-13T09:55:37.381Z,28.13
2018-07-13T09:57:09.202Z,39.38
2018-07-13T09:58:40.613Z,39.38
2018-07-13T10:00:12.080Z,45.00
2018-07-13T10:01:43.789Z,50.63
2018-07-13T10:03:15.212Z,61.88
2018-07-13T10:04:46.780Z,61.88
2018-07-13T10:06:18.346Z,61.88
2018-07-13T10:07:50.172Z,67.50
2018-07-13T10:09:21.479Z,78.75
2018-07-13T10:10:53.046Z,84.38
2018-07-13T10:12:24.818Z,84.38
2018-07-13T10:13:56.179Z,84.38
2018-07-13T10:15:27.930Z,95.63
2018-07-13T10:16:59.312Z,112.50
2018-07-13T10:18:31.122Z,123.75
2018-07-13T10:20:02.458Z,112.50
2018-07-13T10:21:34.215Z,123.75
2018-07-13T10:23:05.579Z,135.00
2018-07-13T10:24:37.281Z,129.38
2018-07-13T10:26:08.714Z,118.13
2018-07-13T10:27:40.380Z,118.13
2018-07-13T10:29:11.905Z,146.25
2018-07-13T10:30:43.615Z,180.00
2018-07-13T10:32:14.979Z,208.13
2018-07-13T10:33:46.779Z,219.38
2018-07-13T10:35:18.452Z,208.13
2018-07-13T10:36:49.731Z,208.13
2018-07-13T10:38:21.246Z,219.38
2018-07-13T10:39:52.815Z,241.88
2018-07-13T10:42:56.154Z,270.00
2018-07-13T10:44:27.517Z,292.50
2018-07-13T10:45:59.334Z,247.50
2018-07-13T10:47:30.650Z,320.63
2018-07-13T10:49:02.215Z,326.25
2018-07-13T10:50:34.087Z,371.25
2018-07-13T10:52:05.449Z,399.38
2018-07-13T10:53:36.917Z,405.00
2018-07-13T10:55:08.722Z,421.88
2018-07-13T10:56:40.270Z,416.25
2018-07-13T10:59:43.326Z,438.75
2018-07-13T11:01:14.754Z,466.88
2018-07-13T11:04:17.895Z,742.50
2018-07-13T11:05:49.464Z,714.38
2018-07-13T11:07:21.227Z,714.38
2018-07-13T11:08:52.602Z,793.13
2018-07-13T11:10:24.466Z,838.13
2018-07-13T11:11:55.881Z,843.75
2018-07-13T11:13:27.507Z,838.13
2018-07-13T11:14:59.376Z,765.00
2018-07-13T11:16:30.642Z,787.50
2018-07-13T11:18:02.009Z,663.75
2018-07-13T11:19:33.873Z,826.88
2018-07-13T11:21:05.150Z,905.63
2018-07-13T11:24:08.528Z,691.88
2018-07-13T11:25:39.863Z,855.00
2018-07-13T11:27:11.438Z,961.88
2018-07-13T11:28:43.205Z,933.75
2018-07-13T11:30:15.027Z,1006.88
2018-07-13T11:31:46.447Z,1051.88
2018-07-13T11:33:17.752Z,984.38
2018-07-13T11:36:20.911Z,1113.75
2018-07-13T11:37:52.431Z,1130.63
2018-07-13T11:39:24.001Z,1136.25
2018-07-13T11:40:55.625Z,1136.25
2018-07-13T11:42:27.158Z,1141.88
2018-07-13T11:43:58.841Z,1158.75
2018-07-13T11:45:30.815Z,1181.25
2018-07-13T11:47:02.384Z,1186.88
2018-07-13T11:48:33.731Z,1215.00
2018-07-13T11:50:05.059Z,1209.38
2018-07-13T11:51:36.581Z,1226.25
2018-07-13T11:54:39.726Z,1316.25
2018-07-13T11:56:11.297Z,1271.25
2018-07-13T11:57:42.869Z,1327.50
2018-07-13T11:59:14.445Z,1383.75
2018-07-13T12:00:46.318Z,1383.75
2018-07-13T12:02:17.588Z,1378.13
2018-07-13T12:03:49.163Z,1406.25
2018-07-13T12:05:21.047Z,1473.75
2018-07-13T12:06:52.411Z,1366.88
2018-07-13T12:08:24.186Z,1400.63
2018-07-13T12:09:55.455Z,1423.13
2018-07-13T12:11:27.030Z,1428.75
2018-07-13T12:12:58.603Z,1479.38
2018-07-13T12:16:01.753Z,1485.00
2018-07-13T12:17:33.412Z,1496.25
2018-07-13T12:19:04.902Z,1541.25
2018-07-13T12:20:36.475Z,1501.88
2018-07-13T12:22:08.050Z,1530.00
2018-07-13T12:23:39.626Z,1591.88
2018-07-13T12:25:11.300Z,1535.63
2018-07-13T12:26:42.774Z,1563.75
2018-07-13T12:28:14.350Z,1603.13
2018-07-13T12:29:46.449Z,1591.88
2018-07-13T12:31:17.503Z,1591.88
2018-07-13T12:32:49.077Z,1603.13
2018-07-13T12:34:20.679Z,1653.75
2018-07-13T12:35:52.537Z,1659.38
2018-07-13T12:37:23.805Z,1659.38
2018-07-13T12:38:55.381Z,1704.38
2018-07-13T12:40:26.964Z,1676.25
2018-07-13T12:45:01.787Z,1743.75
2018-07-13T12:46:33.264Z,1755.00
2018-07-13T12:49:36.417Z,1822.50
2018-07-13T12:51:07.994Z,1839.38
2018-07-13T12:52:39.571Z,1929.38
2018-07-13T12:54:11.256Z,1929.38
2018-07-13T12:55:42.724Z,1991.25
2018-07-13T12:57:14.504Z,1923.75
2018-07-13T12:58:46.182Z,1929.38
2018-07-13T13:00:17.456Z,1890.00
2018-07-13T13:01:49.034Z,1974.38
2018-07-13T13:06:23.982Z,2025.00
2018-07-13T13:07:55.346Z,2036.25
2018-07-13T13:09:27.127Z,2199.38
2018-07-13T13:12:30.385Z,2238.75
2018-07-13T13:14:01.659Z,1884.38
2018-07-13T13:15:33.537Z,1395.00
2018-07-13T13:17:04.862Z,2143.13
2018-07-13T13:20:07.973Z,1901.25
2018-07-13T13:21:39.565Z,2227.50
2018-07-13T13:23:11.134Z,2255.63
2018-07-13T13:26:14.387Z,2210.63
2018-07-13T13:27:46.384Z,2345.63
2018-07-13T13:29:17.507Z,2340.00
2018-07-13T13:30:49.021Z,1929.38
2018-07-13T13:35:23.756Z,2193.75
2018-07-13T13:38:26.915Z,1518.75
2018-07-13T13:41:30.477Z,2272.50
2018-07-13T13:43:01.655Z,2368.13
2018-07-13T13:44:33.234Z,1974.38
2018-07-13T13:46:04.812Z,2559.38
2018-07-13T13:47:36.594Z,2131.88
2018-07-13T13:49:07.970Z,2210.63
2018-07-13T13:50:39.550Z,1378.13
2018-07-13T13:52:11.172Z,2233.13
2018-07-13T13:55:14.288Z,2424.38
2018-07-13T13:56:46.171Z,2655.00
2018-07-13T13:58:17.446Z,2514.38
2018-07-13T13:59:49.034Z,2542.50
2018-07-13T14:01:20.708Z,2565.00
2018-07-13T14:04:23.791Z,2497.50
2018-07-13T14:05:55.345Z,2407.50
2018-07-13T14:07:26.925Z,2379.38
2018-07-13T14:10:30.812Z,2553.75
2018-07-13T14:12:01.752Z,2486.25
2018-07-13T14:13:33.246Z,2520.00
2018-07-13T14:15:04.827Z,2553.75
2018-07-13T14:16:36.931Z,2559.38
2018-07-13T14:18:07.988Z,2610.00
2018-07-13T14:19:39.669Z,2767.50
2018-07-13T14:21:11.761Z,2846.25
2018-07-13T14:22:42.732Z,2970.00
2018-07-13T14:24:14.312Z,2981.25
2018-07-13T14:25:46.196Z,3009.38
2018-07-13T14:27:17.475Z,2981.25
2018-07-13T14:28:49.071Z,2925.00
2018-07-13T14:30:20.636Z,2953.13
2018-07-13T14:33:23.807Z,3020.63
2018-07-13T14:36:26.962Z,3020.63
2018-07-13T14:37:59.079Z,2958.75
2018-07-13T14:41:01.810Z,2857.50
2018-07-13T14:42:33.491Z,2806.88
2018-07-13T14:44:04.919Z,2812.50
2018-07-13T14:47:09.069Z,2998.13
2018-07-13T14:48:39.618Z,3414.38
2018-07-13T14:50:11.199Z,3504.38
2018-07-13T14:51:42.782Z,3560.63
2018-07-13T14:53:14.363Z,3397.50
2018-07-13T14:54:45.945Z,3189.38
2018-07-13T14:56:17.527Z,3656.25
2018-07-13T14:57:50.240Z,3470.63
2018-07-13T14:59:20.929Z,3313.13
2018-07-13T15:00:52.579Z,3037.50
2018-07-13T15:02:24.162Z,2868.75
2018-07-13T15:05:27.022Z,2525.63
2018-07-13T15:06:58.620Z,2559.38
2018-07-13T15:08:30.188Z,2615.63
2018-07-13T15:10:02.046Z,2525.63
2018-07-13T15:13:05.070Z,2306.25
2018-07-13T15:16:08.708Z,2103.75
2018-07-13T15:17:39.687Z,2058.75
2018-07-13T15:19:11.367Z,2030.63
2018-07-13T15:20:43.579Z,1946.25
2018-07-13T15:23:46.539Z,1873.13
2018-07-13T15:25:17.598Z,1800.00
2018-07-13T15:26:49.386Z,1760.63
2018-07-13T15:28:20.764Z,1805.63
2018-07-13T15:29:52.550Z,1721.25
2018-07-13T15:32:55.512Z,1693.13
2018-07-13T15:34:27.095Z,1783.13
2018-07-13T15:35:58.678Z,1833.75
2018-07-13T15:37:30.785Z,1800.00
2018-07-13T15:39:02.249Z,1513.13
2018-07-13T15:40:33.427Z,1861.88
2018-07-13T15:42:05.213Z,1895.63
2018-07-13T15:43:37.116Z,1805.63
2018-07-13T15:45:08.177Z,1946.25
2018-07-13T15:46:39.761Z,1912.50
2018-07-13T15:49:43.449Z,1861.88
2018-07-13T15:51:14.733Z,1867.50
2018-07-13T15:52:46.095Z,1895.63
2018-07-13T15:55:49.259Z,1861.88
2018-07-13T15:57:20.943Z,1811.25
2018-07-13T15:58:52.720Z,1833.75
2018-07-13T16:00:24.212Z,1878.75
2018-07-13T16:01:55.592Z,1828.13
2018-07-13T16:03:27.175Z,1895.63
2018-07-13T16:04:58.760Z,1861.88
2018-07-13T16:12:37.283Z,1901.25
2018-07-13T16:14:08.291Z,1878.75
2018-07-13T16:15:39.851Z,1901.25
2018-07-13T16:17:11.528Z,1980.00
2018-07-13T16:20:17.229Z,2109.38
2018-07-13T16:21:48.421Z,2086.88
2018-07-13T16:23:20.423Z,2036.25
2018-07-13T16:24:50.067Z,2047.50
2018-07-13T16:26:22.139Z,2036.25
2018-07-13T16:27:54.184Z,2143.13
2018-07-13T16:29:25.128Z,2188.13
2018-07-13T16:30:55.954Z,2233.13
2018-07-13T16:33:59.404Z,2300.63
2018-07-13T16:38:34.270Z,2272.50
2018-07-13T16:40:05.382Z,2131.88
2018-07-13T16:44:40.665Z,2041.88
2018-07-13T16:46:11.718Z,2120.63
2018-07-13T16:47:43.622Z,1951.88
2018-07-13T16:49:15.189Z,1923.75
2018-07-13T16:50:46.458Z,2053.13
2018-07-13T16:52:17.849Z,1996.88
2018-07-13T16:55:21.038Z,1963.13
2018-07-13T16:58:24.515Z,1901.25
2018-07-13T16:59:56.075Z,1861.88
2018-07-13T17:01:27.655Z,1884.38
2018-07-13T17:02:58.968Z,1794.38
2018-07-13T17:06:02.827Z,1704.38
2018-07-13T17:07:33.688Z,1659.38
2018-07-13T17:09:05.276Z,1670.63
2018-07-13T17:10:36.857Z,1687.50
2018-07-13T17:12:08.524Z,1670.63
2018-07-13T17:15:11.631Z,1642.50
2018-07-13T17:16:43.190Z,1614.38
2018-07-13T17:18:14.874Z,1625.63
2018-07-13T17:19:46.357Z,1620.00
2018-07-13T17:21:17.944Z,1586.25
2018-07-13T17:22:49.561Z,1558.13
2018-07-13T17:24:21.107Z,1580.63
2018-07-13T17:25:52.692Z,1665.00
2018-07-13T17:27:24.275Z,1541.25
2018-07-13T17:28:55.858Z,1490.63
2018-07-13T17:30:27.451Z,1530.00
2018-07-13T17:31:59.028Z,1541.25
2018-07-13T17:33:30.609Z,1541.25
2018-07-13T17:35:02.522Z,1485.00
2018-07-13T17:36:33.876Z,1524.38
2018-07-13T17:38:05.359Z,1496.25
2018-07-13T17:39:37.149Z,1434.38
2018-07-13T17:41:08.672Z,1456.88
2018-07-13T17:42:40.351Z,1462.50
2018-07-13T17:44:11.697Z,1445.63
2018-07-13T17:45:43.311Z,1434.38
2018-07-13T17:47:14.862Z,1372.50
2018-07-13T17:48:46.460Z,1400.63
2018-07-13T17:50:18.551Z,1395.00
2018-07-13T17:51:49.619Z,1395.00
2018-07-13T17:53:21.195Z,1299.38
2018-07-13T17:54:52.878Z,1316.25
2018-07-13T17:56:24.361Z,1288.13
2018-07-13T17:57:55.945Z,1276.88
2018-07-13T17:59:27.540Z,1288.13
2018-07-13T18:00:59.127Z,1310.63
2018-07-13T18:02:30.694Z,1209.38
2018-07-13T18:04:02.276Z,1254.38
2018-07-13T18:05:34.383Z,1293.75
2018-07-13T18:07:05.442Z,1310.63
2018-07-13T18:08:37.025Z,1321.88
2018-07-13T18:10:08.607Z,1305.00
2018-07-13T18:11:40.197Z,1288.13
2018-07-13T18:13:12.230Z,1338.75
2018-07-13T18:14:43.406Z,1305.00
2018-07-13T18:16:14.948Z,1361.25
2018-07-13T18:19:18.103Z,1445.63
2018-07-13T18:20:49.694Z,1445.63
2018-07-13T18:22:21.269Z,1530.00
2018-07-13T18:23:52.852Z,1546.88
2018-07-13T18:25:24.445Z,1546.88
2018-07-13T18:26:56.222Z,1580.63
2018-07-13T18:28:27.599Z,1563.75
2018-07-13T18:29:59.182Z,1428.75
2018-07-13T18:31:31.636Z,1479.38
2018-07-13T18:33:02.347Z,1462.50
2018-07-13T18:34:33.940Z,1395.00
2018-07-13T18:36:05.525Z,1400.63
2018-07-13T18:37:37.094Z,1400.63
2018-07-13T18:39:09.100Z,1316.25
2018-07-13T18:40:40.294Z,1237.50
2018-07-13T18:42:11.841Z,540.00
2018-07-13T18:43:43.423Z,1327.50
2018-07-13T18:45:15.010Z,1243.13
2018-07-13T18:46:46.788Z,753.75
2018-07-13T18:48:18.168Z,607.50
2018-07-13T18:49:49.852Z,545.63
2018-07-13T18:51:21.330Z,618.75
2018-07-13T18:52:52.913Z,675.00
2018-07-13T18:54:24.493Z,1288.13
2018-07-13T18:55:56.084Z,798.75
2018-07-13T18:57:27.665Z,517.50
2018-07-13T18:58:59.235Z,472.50
2018-07-13T19:00:30.819Z,466.88
2018-07-13T19:02:02.397Z,438.75
2018-07-13T19:03:34.169Z,540.00
2018-07-13T19:05:05.556Z,1091.25
2018-07-13T19:06:37.136Z,590.63
2018-07-13T19:08:08.816Z,540.00
2018-07-13T19:09:40.296Z,736.88
2018-07-13T19:11:11.875Z,697.50
2018-07-13T19:12:43.456Z,658.13
2018-07-13T19:14:15.036Z,635.63
2018-07-13T19:15:46.615Z,641.25
2018-07-13T19:17:18.196Z,630.00
2018-07-13T19:18:49.775Z,590.63
2018-07-13T19:20:21.360Z,579.38
2018-07-13T19:21:52.972Z,540.00
2018-07-13T19:23:24.538Z,517.50
2018-07-13T19:24:56.099Z,495.00
2018-07-13T19:26:27.778Z,466.88
2018-07-13T19:27:59.288Z,450.00
2018-07-13T19:29:30.860Z,438.75
2018-07-13T19:31:02.767Z,410.63
2018-07-13T19:32:34.000Z,410.63
2018-07-13T19:34:05.586Z,337.50
2018-07-13T19:35:37.157Z,399.38
2018-07-13T19:37:08.741Z,421.88
2018-07-13T19:38:40.405Z,433.13
2018-07-13T19:40:11.900Z,410.63
2018-07-13T19:41:43.480Z,405.00
2018-07-13T19:43:15.057Z,399.38
2018-07-13T19:46:18.621Z,376.88
2018-07-13T19:47:49.798Z,320.63
2018-07-13T19:49:21.375Z,264.38
2018-07-13T19:50:52.955Z,219.38
2018-07-13T19:52:24.736Z,180.00
2018-07-13T19:53:56.113Z,146.25
2018-07-13T19:55:27.692Z,129.38
2018-07-13T19:56:59.283Z,118.13
2018-07-13T19:58:30.850Z,112.50
2018-07-13T20:00:02.429Z,101.25
2018-07-13T20:01:34.011Z,95.63
2018-07-13T20:03:05.675Z,90.00
2018-07-13T20:04:37.328Z,90.00
2018-07-13T20:06:08.741Z,84.38
2018-07-13T20:07:40.317Z,84.38
2018-07-13T20:09:11.895Z,78.75
2018-07-13T20:10:43.475Z,73.13
2018-07-13T20:12:15.048Z,73.13
2018-07-13T20:13:46.624Z,61.88
2018-07-13T20:15:18.504Z,56.25
2018-07-13T20:16:49.877Z,56.25
2018-07-13T20:18:21.352Z,50.63
2018-07-13T20:22:56.483Z,39.38
2018-07-13T20:24:27.654Z,39.38
2018-07-13T20:25:59.229Z,33.75
2018-07-13T20:27:30.805Z,33.75
2018-07-13T20:29:02.379Z,28.13
2018-07-13T20:30:33.956Z,22.50
2018-07-13T20:32:05.529Z,22.50
2018-07-13T20:33:37.106Z,16.88
2018-07-13T20:35:08.679Z,16.88
2018-07-13T20:36:40.253Z,11.25
2018-07-13T20:38:11.827Z,11.25
2018-07-13T20:39:43.403Z,5.63
2018-07-13T20:41:15.080Z,5.63
2018-07-13T20:42:46.551Z,5.63
2018-07-13T20:44:18.125Z,0.00
2018-07-13T20:45:49.698Z,0.00
2018-07-13T20:47:21.272Z,0.00